createdAt,value
2022-11-28T00:01:58.799Z,39.85
2022-11-28T00:08:23.151Z,39.91
2022-11-28T00:14:47.623Z,39.98
2022-11-28T00:21:12.010Z,40.05
2022-11-28T00:27:36.241Z,40.11
2022-11-28T00:34:00.417Z,40.15
2022-11-28T00:40:24.731Z,40.19
2022-11-28T00:46:48.975Z,40.22
2022-11-28T00:53:13.380Z,40.27
2022-11-28T00:59:37.665Z,40.31
2022-11-28T01:06:01.968Z,40.35
2022-11-28T01:12:26.175Z,40.42
2022-11-28T01:18:50.155Z,40.56
2022-11-28T01:25:14.421Z,40.65
2022-11-28T01:31:38.662Z,40.73
2022-11-28T01:38:02.925Z,40.81
2022-11-28T01:44:36.096Z,40.87
2022-11-28T01:51:00.083Z,40.92
2022-11-28T01:57:24.434Z,41.02
2022-11-28T02:03:51.707Z,41.10
2022-11-28T02:10:15.957Z,41.15
2022-11-28T02:16:49.238Z,41.25
2022-11-28T02:23:22.219Z,41.39
2022-11-28T02:30:04.996Z,41.44
2022-11-28T02:36:35.242Z,41.49
2022-11-28T02:42:59.623Z,41.57
2022-11-28T02:49:39.205Z,41.66
2022-11-28T02:56:03.519Z,41.96
2022-11-28T03:02:30.757Z,42.23
2022-11-28T03:08:58.064Z,42.36
2022-11-28T03:15:25.340Z,42.45
2022-11-28T03:21:50.088Z,42.48
2022-11-28T03:28:16.959Z,42.53
2022-11-28T03:34:41.606Z,42.61
2022-11-28T03:41:06.479Z,42.68
2022-11-28T03:47:33.686Z,42.87
2022-11-28T03:54:00.530Z,43.06
2022-11-28T04:00:27.559Z,43.08
2022-11-28T04:07:03.741Z,43.18
2022-11-28T04:13:37.544Z,43.22
2022-11-28T04:20:01.936Z,43.41
2022-11-28T04:26:26.500Z,43.33
2022-11-28T04:32:50.872Z,43.30
2022-11-28T04:39:15.212Z,43.31
2022-11-28T04:45:48.570Z,43.35
2022-11-28T04:52:19.112Z,43.41
2022-11-28T04:58:43.589Z,43.47
2022-11-28T05:05:03.593Z,43.53
2022-11-28T05:11:27.915Z,43.54
2022-11-28T05:17:52.307Z,43.58
2022-11-28T05:24:16.580Z,43.65
2022-11-28T05:30:40.925Z,43.66
2022-11-28T05:37:05.330Z,43.57
2022-11-28T05:43:29.756Z,43.67
2022-11-28T05:49:54.187Z,43.69
2022-11-28T05:56:18.527Z,43.67
2022-11-28T06:02:42.866Z,43.60
2022-11-28T06:09:07.296Z,43.49
2022-11-28T06:15:34.882Z,43.37
2022-11-28T06:22:04.644Z,43.19
2022-11-28T06:28:29.036Z,42.99
2022-11-28T06:34:53.338Z,42.74
2022-11-28T06:41:17.798Z,42.50
2022-11-28T06:47:42.166Z,42.26
2022-11-28T06:54:06.590Z,42.03
2022-11-28T07:00:30.850Z,41.74
2022-11-28T07:06:55.514Z,41.48
2022-11-28T07:13:19.956Z,41.23
2022-11-28T07:19:44.740Z,41.00
2022-11-28T07:26:10.181Z,40.76
2022-11-28T07:32:34.601Z,40.51
2022-11-28T07:38:59.048Z,40.29
2022-11-28T07:45:33.003Z,40.10
2022-11-28T07:52:07.920Z,40.08
2022-11-28T07:58:32.332Z,40.10
2022-11-28T08:04:56.806Z,39.99
2022-11-28T08:11:21.297Z,39.84
2022-11-28T08:17:45.619Z,39.73
2022-11-28T08:24:09.989Z,39.61
2022-11-28T08:30:34.457Z,39.55
2022-11-28T08:36:58.876Z,39.65
2022-11-28T08:43:23.286Z,39.80
2022-11-28T08:49:47.724Z,39.98
2022-11-28T08:56:12.168Z,40.01
2022-11-28T09:02:36.617Z,40.12
2022-11-28T09:09:01.065Z,40.20
2022-11-28T09:15:25.380Z,40.18
2022-11-28T09:21:54.571Z,40.16
2022-11-28T09:28:21.875Z,40.12
2022-11-28T09:34:46.232Z,40.02
2022-11-28T09:41:16.804Z,39.93
2022-11-28T09:47:41.194Z,39.85
2022-11-28T09:54:17.303Z,39.77
2022-11-28T10:00:41.683Z,39.64
2022-11-28T10:07:06.085Z,39.54
2022-11-28T10:14:07.326Z,39.49
2022-11-28T10:20:41.512Z,39.49
2022-11-28T10:27:06.118Z,39.42
2022-11-28T10:33:30.558Z,39.39
2022-11-28T10:39:54.955Z,39.32
2022-11-28T10:46:17.541Z,39.29
2022-11-28T10:52:47.893Z,39.23
2022-11-28T10:59:15.360Z,39.25
2022-11-28T11:05:39.683Z,39.32
2022-11-28T11:12:06.661Z,39.33
2022-11-28T11:18:33.935Z,39.29
2022-11-28T11:25:13.447Z,39.24
2022-11-28T11:31:42.906Z,39.20
2022-11-28T11:38:19.444Z,39.20
2022-11-28T11:44:55.638Z,39.17
2022-11-28T11:51:19.930Z,39.16
2022-11-28T11:57:44.269Z,39.07
2022-11-28T12:04:52.517Z,39.02
2022-11-28T12:11:17.022Z,38.91
2022-11-28T12:17:58.802Z,38.77
2022-11-28T12:24:32.342Z,38.65
2022-11-28T12:31:02.461Z,38.52
2022-11-28T12:37:33.079Z,38.41
2022-11-28T12:44:27.767Z,38.44
2022-11-28T12:51:06.129Z,38.40
2022-11-28T12:57:30.757Z,38.33
2022-11-28T13:04:04.061Z,38.28
2022-11-28T13:10:40.747Z,38.41
2022-11-28T13:17:11.221Z,38.58
2022-11-28T13:23:35.867Z,38.65
2022-11-28T13:29:58.505Z,38.76
2022-11-28T13:43:33.710Z,38.98
2022-11-28T13:50:02.257Z,39.08
2022-11-28T13:56:47.997Z,39.15
2022-11-28T14:03:27.443Z,39.10
2022-11-28T14:10:04.103Z,38.73
2022-11-28T14:16:46.907Z,38.47
2022-11-28T14:23:32.911Z,38.47
2022-11-28T14:30:03.109Z,38.43
2022-11-28T14:36:44.620Z,38.42
2022-11-28T14:43:09.037Z,38.47
2022-11-28T14:49:39.588Z,38.50
2022-11-28T14:56:06.797Z,38.55
2022-11-28T15:02:31.266Z,38.55
2022-11-28T15:08:58.953Z,38.51
2022-11-28T15:15:23.281Z,38.47
2022-11-28T15:21:53.433Z,38.42
2022-11-28T15:28:17.854Z,38.36
2022-11-28T15:34:42.466Z,38.29
2022-11-28T15:41:01.255Z,38.23
2022-11-28T15:47:25.635Z,38.16
2022-11-28T15:53:59.193Z,38.12
2022-11-28T16:00:23.495Z,38.12
2022-11-28T16:06:47.912Z,38.13
2022-11-28T16:13:12.253Z,38.14
2022-11-28T16:19:36.015Z,38.16
2022-11-28T16:26:02.894Z,38.16
2022-11-28T16:32:27.309Z,38.17
2022-11-28T16:38:54.222Z,38.15
2022-11-28T16:45:21.441Z,38.11
2022-11-28T16:51:53.977Z,38.11
2022-11-28T16:58:27.459Z,38.05
2022-11-28T17:05:03.683Z,38.08
2022-11-28T17:11:28.118Z,38.22
2022-11-28T17:17:52.495Z,38.38
2022-11-28T17:24:16.938Z,38.48
2022-11-28T17:30:41.424Z,38.51
2022-11-28T17:37:05.807Z,38.52
2022-11-28T17:43:32.391Z,38.48
2022-11-28T17:50:00.367Z,38.40
2022-11-28T17:56:25.210Z,38.33
2022-11-28T18:02:50.171Z,38.30
2022-11-28T18:09:14.662Z,38.30
2022-11-28T18:15:39.046Z,38.25
2022-11-28T18:22:03.479Z,38.20
2022-11-28T18:28:27.793Z,38.21
2022-11-28T18:34:52.224Z,38.36
2022-11-28T18:41:16.593Z,38.59
2022-11-28T18:47:40.925Z,38.67
2022-11-28T18:54:05.227Z,38.70
2022-11-28T19:00:29.652Z,38.73
2022-11-28T19:06:53.983Z,38.79
2022-11-28T19:13:18.366Z,38.74
2022-11-28T19:19:42.942Z,38.69
2022-11-28T19:26:07.754Z,38.58
2022-11-28T19:32:32.020Z,38.50
2022-11-28T19:38:56.419Z,38.38
2022-11-28T19:45:20.851Z,38.37
2022-11-28T19:51:45.230Z,38.50
2022-11-28T19:58:09.589Z,38.67
2022-11-28T20:04:33.955Z,38.84
2022-11-28T20:10:58.267Z,38.97
2022-11-28T20:17:22.618Z,39.02
2022-11-28T20:23:47.005Z,38.99
2022-11-28T20:30:11.313Z,38.98
2022-11-28T20:36:35.709Z,38.93
2022-11-28T20:43:00.281Z,38.89
2022-11-28T20:49:24.655Z,38.85
2022-11-28T20:55:49.069Z,38.87
2022-11-28T21:02:16.431Z,38.81
2022-11-28T21:08:40.973Z,38.81
2022-11-28T21:15:05.290Z,38.76
2022-11-28T21:21:29.556Z,38.73
2022-11-28T21:27:53.933Z,38.67
2022-11-28T21:34:18.352Z,38.65
2022-11-28T21:40:42.681Z,38.61
2022-11-28T21:47:07.359Z,38.59
2022-11-28T21:53:31.643Z,38.55
2022-11-28T21:59:55.965Z,38.51
2022-11-28T22:06:02.812Z,38.54
2022-11-28T22:12:27.616Z,38.54
2022-11-28T22:18:51.908Z,38.55
2022-11-28T22:25:16.336Z,38.60
2022-11-28T22:31:40.492Z,38.62
2022-11-28T22:38:04.843Z,38.65
2022-11-28T22:44:29.253Z,38.66
2022-11-28T22:50:53.672Z,38.74
2022-11-28T22:57:17.982Z,38.81
2022-11-28T23:03:42.272Z,38.83
2022-11-28T23:10:06.725Z,38.93
2022-11-28T23:16:31.030Z,39.01
2022-11-28T23:22:48.494Z,39.06
2022-11-28T23:29:12.903Z,39.10
2022-11-28T23:35:37.313Z,39.19
2022-11-28T23:42:01.708Z,39.27
2022-11-28T23:48:25.988Z,39.35
2022-11-28T23:54:50.412Z,39.42
